sensor_id;sensor_type;location;lat;lon;timestamp;temperature;humidity
69393;SHT31;56582;44.624;20.378;2024-03-08T00:01:30;6.47;92.17
69393;SHT31;56582;44.624;20.378;2024-03-08T00:03:56;6.52;92.28
69393;SHT31;56582;44.624;20.378;2024-03-08T00:06:22;6.61;92.39
69393;SHT31;56582;44.624;20.378;2024-03-08T00:08:47;6.59;92.08
69393;SHT31;56582;44.624;20.378;2024-03-08T00:11:13;6.68;91.69
69393;SHT31;56582;44.624;20.378;2024-03-08T00:13:39;6.59;91.99
69393;SHT31;56582;44.624;20.378;2024-03-08T00:16:04;6.59;91.82
69393;SHT31;56582;44.624;20.378;2024-03-08T00:18:30;6.58;92.01
69393;SHT31;56582;44.624;20.378;2024-03-08T00:20:56;6.55;91.98
69393;SHT31;56582;44.624;20.378;2024-03-08T00:23:21;6.54;92.20
69393;SHT31;56582;44.624;20.378;2024-03-08T00:25:47;6.59;91.91
69393;SHT31;56582;44.624;20.378;2024-03-08T00:28:12;6.58;91.88
69393;SHT31;56582;44.624;20.378;2024-03-08T00:30:40;6.52;92.19
69393;SHT31;56582;44.624;20.378;2024-03-08T00:33:06;6.48;92.31
69393;SHT31;56582;44.624;20.378;2024-03-08T00:35:31;6.48;92.43
69393;SHT31;56582;44.624;20.378;2024-03-08T00:37:57;6.30;92.65
69393;SHT31;56582;44.624;20.378;2024-03-08T00:40:22;6.27;92.97
69393;SHT31;56582;44.624;20.378;2024-03-08T00:42:48;6.20;93.12
69393;SHT31;56582;44.624;20.378;2024-03-08T00:45:14;6.16;93.29
69393;SHT31;56582;44.624;20.378;2024-03-08T00:47:39;6.13;93.53
69393;SHT31;56582;44.624;20.378;2024-03-08T00:50:05;6.13;93.68
69393;SHT31;56582;44.624;20.378;2024-03-08T00:52:31;6.02;93.87
69393;SHT31;56582;44.624;20.378;2024-03-08T00:54:57;6.11;93.95
69393;SHT31;56582;44.624;20.378;2024-03-08T00:57:22;6.14;93.94
69393;SHT31;56582;44.624;20.378;2024-03-08T00:59:48;6.05;93.89
69393;SHT31;56582;44.624;20.378;2024-03-08T01:02:14;6.10;93.91
69393;SHT31;56582;44.624;20.378;2024-03-08T01:04:39;6.09;93.80
69393;SHT31;56582;44.624;20.378;2024-03-08T01:07:05;6.11;93.95
69393;SHT31;56582;44.624;20.378;2024-03-08T01:09:31;6.20;93.76
69393;SHT31;56582;44.624;20.378;2024-03-08T01:11:59;6.21;93.80
69393;SHT31;56582;44.624;20.378;2024-03-08T01:14:26;6.24;93.62
69393;SHT31;56582;44.624;20.378;2024-03-08T01:16:52;6.23;93.49
69393;SHT31;56582;44.624;20.378;2024-03-08T01:19:18;6.20;93.57
69393;SHT31;56582;44.624;20.378;2024-03-08T01:21:44;6.14;93.48
69393;SHT31;56582;44.624;20.378;2024-03-08T01:24:10;6.27;93.55
69393;SHT31;56582;44.624;20.378;2024-03-08T01:26:35;6.28;93.48
69393;SHT31;56582;44.624;20.378;2024-03-08T01:29:02;6.17;93.45
69393;SHT31;56582;44.624;20.378;2024-03-08T01:31:31;6.20;93.68
69393;SHT31;56582;44.624;20.378;2024-03-08T01:33:57;6.07;93.81
69393;SHT31;56582;44.624;20.378;2024-03-08T01:36:23;5.99;94.04
69393;SHT31;56582;44.624;20.378;2024-03-08T01:38:50;6.07;94.01
69393;SHT31;56582;44.624;20.378;2024-03-08T01:41:16;5.99;94.04
69393;SHT31;56582;44.624;20.378;2024-03-08T01:43:43;6.05;94.13
69393;SHT31;56582;44.624;20.378;2024-03-08T01:46:09;6.11;94.07
69393;SHT31;56582;44.624;20.378;2024-03-08T01:48:38;6.09;93.96
69393;SHT31;56582;44.624;20.378;2024-03-08T01:51:04;6.10;93.95
69393;SHT31;56582;44.624;20.378;2024-03-08T01:53:31;6.13;93.81
69393;SHT31;56582;44.624;20.378;2024-03-08T01:55:58;6.11;93.76
69393;SHT31;56582;44.624;20.378;2024-03-08T01:58:27;6.11;93.78
69393;SHT31;56582;44.624;20.378;2024-03-08T02:00:54;6.16;93.64
69393;SHT31;56582;44.624;20.378;2024-03-08T02:03:21;6.07;93.67
69393;SHT31;56582;44.624;20.378;2024-03-08T02:05:48;6.03;93.97
69393;SHT31;56582;44.624;20.378;2024-03-08T02:08:14;5.96;94.14
69393;SHT31;56582;44.624;20.378;2024-03-08T02:10:44;6.06;94.25
69393;SHT31;56582;44.624;20.378;2024-03-08T02:13:11;6.03;94.16
69393;SHT31;56582;44.624;20.378;2024-03-08T02:16:03;6.14;93.99
69393;SHT31;56582;44.624;20.378;2024-03-08T02:18:30;6.14;93.71
69393;SHT31;56582;44.624;20.378;2024-03-08T02:20:59;6.24;93.72
69393;SHT31;56582;44.624;20.378;2024-03-08T02:23:26;6.34;93.49
69393;SHT31;56582;44.624;20.378;2024-03-08T02:25:53;6.61;95.35
69393;SHT31;56582;44.624;20.378;2024-03-08T02:28:19;6.58;94.70
69393;SHT31;56582;44.624;20.378;2024-03-08T02:30:45;6.47;93.76
69393;SHT31;56582;44.624;20.378;2024-03-08T02:33:15;6.45;93.03
69393;SHT31;56582;44.624;20.378;2024-03-08T02:35:44;6.38;92.85
69393;SHT31;56582;44.624;20.378;2024-03-08T02:38:13;6.34;92.65
69393;SHT31;56582;44.624;20.378;2024-03-08T02:40:42;6.24;93.02
69393;SHT31;56582;44.624;20.378;2024-03-08T02:43:09;6.30;92.98
69393;SHT31;56582;44.624;20.378;2024-03-08T02:45:35;6.31;93.06
69393;SHT31;56582;44.624;20.378;2024-03-08T02:48:01;6.26;93.04
69393;SHT31;56582;44.624;20.378;2024-03-08T02:50:27;6.28;93.12
69393;SHT31;56582;44.624;20.378;2024-03-08T02:52:53;6.23;93.09
69393;SHT31;56582;44.624;20.378;2024-03-08T02:55:18;6.30;93.02
69393;SHT31;56582;44.624;20.378;2024-03-08T02:57:45;6.31;92.98
69393;SHT31;56582;44.624;20.378;2024-03-08T03:00:13;6.28;92.97
69393;SHT31;56582;44.624;20.378;2024-03-08T03:02:39;6.18;93.16
69393;SHT31;56582;44.624;20.378;2024-03-08T03:05:05;6.30;93.12
69393;SHT31;56582;44.624;20.378;2024-03-08T03:07:34;6.36;93.00
69393;SHT31;56582;44.624;20.378;2024-03-08T03:10:00;6.37;92.72
69393;SHT31;56582;44.624;20.378;2024-03-08T03:12:29;6.37;92.65
69393;SHT31;56582;44.624;20.378;2024-03-08T03:14:56;6.36;92.52
69393;SHT31;56582;44.624;20.378;2024-03-08T03:17:24;6.37;92.89
69393;SHT31;56582;44.624;20.378;2024-03-08T03:19:51;6.24;92.83
69393;SHT31;56582;44.624;20.378;2024-03-08T03:22:18;6.21;93.04
69393;SHT31;56582;44.624;20.378;2024-03-08T03:24:45;6.21;93.10
69393;SHT31;56582;44.624;20.378;2024-03-08T03:27:17;6.18;93.28
69393;SHT31;56582;44.624;20.378;2024-03-08T03:29:44;6.16;93.06
69393;SHT31;56582;44.624;20.378;2024-03-08T03:32:15;6.13;93.32
69393;SHT31;56582;44.624;20.378;2024-03-08T03:34:44;6.09;93.42
69393;SHT31;56582;44.624;20.378;2024-03-08T03:37:11;6.16;93.53
69393;SHT31;56582;44.624;20.378;2024-03-08T03:39:40;6.23;93.48
69393;SHT31;56582;44.624;20.378;2024-03-08T03:42:18;6.17;93.49
69393;SHT31;56582;44.624;20.378;2024-03-08T03:44:45;6.21;93.47
69393;SHT31;56582;44.624;20.378;2024-03-08T03:47:12;6.24;93.53
69393;SHT31;56582;44.624;20.378;2024-03-08T03:49:39;6.30;93.27
69393;SHT31;56582;44.624;20.378;2024-03-08T03:52:05;6.34;93.27
69393;SHT31;56582;44.624;20.378;2024-03-08T03:54:31;6.34;93.26
69393;SHT31;56582;44.624;20.378;2024-03-08T03:57:00;6.34;93.19
69393;SHT31;56582;44.624;20.378;2024-03-08T03:59:26;6.41;92.85
69393;SHT31;56582;44.624;20.378;2024-03-08T04:01:55;6.31;92.65
69393;SHT31;56582;44.624;20.378;2024-03-08T04:04:21;6.31;92.43
69393;SHT31;56582;44.624;20.378;2024-03-08T04:06:50;6.31;92.81
69393;SHT31;56582;44.624;20.378;2024-03-08T04:09:17;6.18;92.64
69393;SHT31;56582;44.624;20.378;2024-03-08T04:11:49;6.06;92.82
69393;SHT31;56582;44.624;20.378;2024-03-08T04:14:18;6.13;93.21
69393;SHT31;56582;44.624;20.378;2024-03-08T04:16:44;6.17;93.04
69393;SHT31;56582;44.624;20.378;2024-03-08T04:19:09;6.16;93.20
69393;SHT31;56582;44.624;20.378;2024-03-08T04:21:36;6.02;93.38
69393;SHT31;56582;44.624;20.378;2024-03-08T04:24:02;6.03;93.89
69393;SHT31;56582;44.624;20.378;2024-03-08T04:26:28;6.06;95.36
69393;SHT31;56582;44.624;20.378;2024-03-08T04:29:00;6.03;95.10
69393;SHT31;56582;44.624;20.378;2024-03-08T04:31:27;5.85;94.66
69393;SHT31;56582;44.624;20.378;2024-03-08T04:33:53;5.97;94.73
69393;SHT31;56582;44.624;20.378;2024-03-08T04:36:18;5.99;94.71
69393;SHT31;56582;44.624;20.378;2024-03-08T04:38:45;5.87;94.13
69393;SHT31;56582;44.624;20.378;2024-03-08T04:41:11;5.82;93.94
69393;SHT31;56582;44.624;20.378;2024-03-08T04:43:38;5.75;93.91
69393;SHT31;56582;44.624;20.378;2024-03-08T04:46:05;5.72;94.16
69393;SHT31;56582;44.624;20.378;2024-03-08T04:48:30;5.75;94.18
69393;SHT31;56582;44.624;20.378;2024-03-08T04:50:57;5.70;94.32
69393;SHT31;56582;44.624;20.378;2024-03-08T04:53:24;5.69;94.30
69393;SHT31;56582;44.624;20.378;2024-03-08T04:55:50;5.82;94.42
69393;SHT31;56582;44.624;20.378;2024-03-08T04:58:16;5.70;94.15
69393;SHT31;56582;44.624;20.378;2024-03-08T05:00:41;5.68;93.84
69393;SHT31;56582;44.624;20.378;2024-03-08T05:03:07;5.68;93.99
69393;SHT31;56582;44.624;20.378;2024-03-08T05:05:33;5.60;94.01
69393;SHT31;56582;44.624;20.378;2024-03-08T05:07:58;5.76;93.80
69393;SHT31;56582;44.624;20.378;2024-03-08T05:10:24;5.75;93.30
69393;SHT31;56582;44.624;20.378;2024-03-08T05:12:49;5.65;93.17
69393;SHT31;56582;44.624;20.378;2024-03-08T05:15:15;5.69;93.46
69393;SHT31;56582;44.624;20.378;2024-03-08T05:17:41;5.73;93.44
69393;SHT31;56582;44.624;20.378;2024-03-08T05:20:07;5.68;93.32
69393;SHT31;56582;44.624;20.378;2024-03-08T05:22:33;5.76;93.72
69393;SHT31;56582;44.624;20.378;2024-03-08T05:24:59;5.96;93.74
69393;SHT31;56582;44.624;20.378;2024-03-08T05:27:25;5.90;93.91
69393;SHT31;56582;44.624;20.378;2024-03-08T05:29:50;5.86;93.19
69393;SHT31;56582;44.624;20.378;2024-03-08T05:32:16;5.75;93.00
69393;SHT31;56582;44.624;20.378;2024-03-08T05:34:41;5.69;93.27
69393;SHT31;56582;44.624;20.378;2024-03-08T05:37:08;5.65;93.28
69393;SHT31;56582;44.624;20.378;2024-03-08T05:39:33;5.63;93.47
69393;SHT31;56582;44.624;20.378;2024-03-08T05:41:59;5.58;93.38
69393;SHT31;56582;44.624;20.378;2024-03-08T05:44:25;5.59;93.05
69393;SHT31;56582;44.624;20.378;2024-03-08T05:46:54;5.60;92.87
69393;SHT31;56582;44.624;20.378;2024-03-08T05:49:19;5.72;93.02
69393;SHT31;56582;44.624;20.378;2024-03-08T05:51:46;5.59;92.85
69393;SHT31;56582;44.624;20.378;2024-03-08T05:54:13;5.44;92.88
69393;SHT31;56582;44.624;20.378;2024-03-08T05:56:39;5.45;93.16
69393;SHT31;56582;44.624;20.378;2024-03-08T05:59:07;5.49;93.24
69393;SHT31;56582;44.624;20.378;2024-03-08T06:01:33;5.48;93.75
69393;SHT31;56582;44.624;20.378;2024-03-08T06:04:02;5.48;93.62
69393;SHT31;56582;44.624;20.378;2024-03-08T06:06:28;5.56;93.82
69393;SHT31;56582;44.624;20.378;2024-03-08T06:08:53;5.54;93.58
69393;SHT31;56582;44.624;20.378;2024-03-08T06:11:22;5.51;93.24
69393;SHT31;56582;44.624;20.378;2024-03-08T06:13:47;5.47;92.96
69393;SHT31;56582;44.624;20.378;2024-03-08T06:16:13;5.44;93.36
69393;SHT31;56582;44.624;20.378;2024-03-08T06:18:39;5.31;93.34
69393;SHT31;56582;44.624;20.378;2024-03-08T06:21:05;5.21;93.13
69393;SHT31;56582;44.624;20.378;2024-03-08T06:23:34;5.27;93.57
69393;SHT31;56582;44.624;20.378;2024-03-08T06:26:04;5.27;93.53
69393;SHT31;56582;44.624;20.378;2024-03-08T06:28:30;5.32;93.60
69393;SHT31;56582;44.624;20.378;2024-03-08T06:30:58;5.31;93.58
69393;SHT31;56582;44.624;20.378;2024-03-08T06:33:24;5.39;93.43
69393;SHT31;56582;44.624;20.378;2024-03-08T06:35:54;5.41;93.43
69393;SHT31;56582;44.624;20.378;2024-03-08T06:38:26;5.48;93.40
69393;SHT31;56582;44.624;20.378;2024-03-08T06:40:52;5.47;93.38
69393;SHT31;56582;44.624;20.378;2024-03-08T06:43:21;5.48;93.20
69393;SHT31;56582;44.624;20.378;2024-03-08T06:45:47;5.55;93.27
69393;SHT31;56582;44.624;20.378;2024-03-08T06:48:18;5.51;93.08
69393;SHT31;56582;44.624;20.378;2024-03-08T06:50:49;5.55;93.26
69393;SHT31;56582;44.624;20.378;2024-03-08T06:53:16;5.56;93.17
69393;SHT31;56582;44.624;20.378;2024-03-08T06:55:44;5.59;92.98
69393;SHT31;56582;44.624;20.378;2024-03-08T06:58:10;5.58;92.96
69393;SHT31;56582;44.624;20.378;2024-03-08T07:00:36;5.54;93.08
69393;SHT31;56582;44.624;20.378;2024-03-08T07:03:02;5.52;93.12
69393;SHT31;56582;44.624;20.378;2024-03-08T07:05:34;5.52;92.92
69393;SHT31;56582;44.624;20.378;2024-03-08T07:08:00;5.47;93.04
69393;SHT31;56582;44.624;20.378;2024-03-08T07:10:25;5.48;93.26
69393;SHT31;56582;44.624;20.378;2024-03-08T07:12:52;5.47;93.46
69393;SHT31;56582;44.624;20.378;2024-03-08T07:15:21;5.48;93.40
69393;SHT31;56582;44.624;20.378;2024-03-08T07:17:49;5.48;93.13
69393;SHT31;56582;44.624;20.378;2024-03-08T07:20:23;5.48;93.44
69393;SHT31;56582;44.624;20.378;2024-03-08T07:22:49;5.54;93.46
69393;SHT31;56582;44.624;20.378;2024-03-08T07:25:18;5.51;93.43
69393;SHT31;56582;44.624;20.378;2024-03-08T07:27:48;5.60;93.42
69393;SHT31;56582;44.624;20.378;2024-03-08T07:30:18;5.66;93.34
69393;SHT31;56582;44.624;20.378;2024-03-08T07:33:02;5.65;93.41
69393;SHT31;56582;44.624;20.378;2024-03-08T07:35:28;5.68;93.53
69393;SHT31;56582;44.624;20.378;2024-03-08T07:37:54;5.69;93.56
69393;SHT31;56582;44.624;20.378;2024-03-08T07:40:21;5.76;93.72
69393;SHT31;56582;44.624;20.378;2024-03-08T07:42:47;5.78;93.58
69393;SHT31;56582;44.624;20.378;2024-03-08T07:45:12;5.75;93.36
69393;SHT31;56582;44.624;20.378;2024-03-08T07:47:38;5.76;93.19
69393;SHT31;56582;44.624;20.378;2024-03-08T07:50:06;5.76;92.72
69393;SHT31;56582;44.624;20.378;2024-03-08T07:52:34;5.85;93.05
69393;SHT31;56582;44.624;20.378;2024-03-08T07:55:00;5.86;93.14
69393;SHT31;56582;44.624;20.378;2024-03-08T07:57:26;5.85;93.03
69393;SHT31;56582;44.624;20.378;2024-03-08T07:59:51;5.90;93.00
69393;SHT31;56582;44.624;20.378;2024-03-08T08:02:17;5.86;92.89
69393;SHT31;56582;44.624;20.378;2024-03-08T08:04:43;5.95;92.99
69393;SHT31;56582;44.624;20.378;2024-03-08T08:07:10;6.03;93.27
69393;SHT31;56582;44.624;20.378;2024-03-08T08:09:36;6.09;92.93
69393;SHT31;56582;44.624;20.378;2024-03-08T08:12:03;6.21;92.78
69393;SHT31;56582;44.624;20.378;2024-03-08T08:14:29;6.27;92.37
69393;SHT31;56582;44.624;20.378;2024-03-08T08:16:56;6.31;92.42
69393;SHT31;56582;44.624;20.378;2024-03-08T08:19:23;6.30;92.33
69393;SHT31;56582;44.624;20.378;2024-03-08T08:21:48;6.37;92.37
69393;SHT31;56582;44.624;20.378;2024-03-08T08:24:14;6.38;92.62
69393;SHT31;56582;44.624;20.378;2024-03-08T08:26:40;6.42;92.53
69393;SHT31;56582;44.624;20.378;2024-03-08T08:29:07;6.58;92.89
69393;SHT31;56582;44.624;20.378;2024-03-08T08:31:33;6.65;92.78
69393;SHT31;56582;44.624;20.378;2024-03-08T08:33:59;6.68;92.54
69393;SHT31;56582;44.624;20.378;2024-03-08T08:36:25;6.72;92.71
69393;SHT31;56582;44.624;20.378;2024-03-08T08:38:51;6.69;92.55
69393;SHT31;56582;44.624;20.378;2024-03-08T08:41:19;6.79;92.39
69393;SHT31;56582;44.624;20.378;2024-03-08T08:43:47;6.93;92.91
69393;SHT31;56582;44.624;20.378;2024-03-08T08:46:12;6.95;92.34
69393;SHT31;56582;44.624;20.378;2024-03-08T08:48:41;6.97;92.00
69393;SHT31;56582;44.624;20.378;2024-03-08T08:51:09;7.09;91.52
69393;SHT31;56582;44.624;20.378;2024-03-08T08:53:41;7.15;91.59
69393;SHT31;56582;44.624;20.378;2024-03-08T08:56:12;7.19;91.15
69393;SHT31;56582;44.624;20.378;2024-03-08T08:58:39;7.23;90.08
69393;SHT31;56582;44.624;20.378;2024-03-08T09:01:06;7.22;90.80
69393;SHT31;56582;44.624;20.378;2024-03-08T09:04:00;7.27;90.43
69393;SHT31;56582;44.624;20.378;2024-03-08T09:06:25;7.22;91.38
69393;SHT31;56582;44.624;20.378;2024-03-08T09:09:00;7.28;91.02
69393;SHT31;56582;44.624;20.378;2024-03-08T09:11:25;7.23;90.48
69393;SHT31;56582;44.624;20.378;2024-03-08T09:13:51;7.22;91.29
69393;SHT31;56582;44.624;20.378;2024-03-08T09:23:00;7.42;91.32
69393;SHT31;56582;44.624;20.378;2024-03-08T09:32:10;7.65;91.33
69393;SHT31;56582;44.624;20.378;2024-03-08T09:34:37;7.70;89.54
69393;SHT31;56582;44.624;20.378;2024-03-08T09:37:06;7.79;90.19
69393;SHT31;56582;44.624;20.378;2024-03-08T09:39:34;7.78;90.06
69393;SHT31;56582;44.624;20.378;2024-03-08T09:42:01;7.94;90.37
69393;SHT31;56582;44.624;20.378;2024-03-08T09:44:27;8.05;89.41
69393;SHT31;56582;44.624;20.378;2024-03-08T09:46:55;8.09;88.38
69393;SHT31;56582;44.624;20.378;2024-03-08T09:49:20;8.15;88.24
69393;SHT31;56582;44.624;20.378;2024-03-08T09:51:46;8.09;89.73
69393;SHT31;56582;44.624;20.378;2024-03-08T09:54:13;8.15;89.46
69393;SHT31;56582;44.624;20.378;2024-03-08T09:56:42;8.09;88.38
69393;SHT31;56582;44.624;20.378;2024-03-08T09:59:09;8.15;88.43
69393;SHT31;56582;44.624;20.378;2024-03-08T10:01:53;7.95;88.29
69393;SHT31;56582;44.624;20.378;2024-03-08T10:04:24;8.02;88.35
69393;SHT31;56582;44.624;20.378;2024-03-08T10:06:51;7.96;89.00
69393;SHT31;56582;44.624;20.378;2024-03-08T10:09:19;7.95;88.69
69393;SHT31;56582;44.624;20.378;2024-03-08T10:11:46;8.07;88.74
69393;SHT31;56582;44.624;20.378;2024-03-08T10:14:11;8.17;89.27
69393;SHT31;56582;44.624;20.378;2024-03-08T10:16:40;8.23;89.63
69393;SHT31;56582;44.624;20.378;2024-03-08T10:19:06;8.23;88.69
69393;SHT31;56582;44.624;20.378;2024-03-08T10:21:33;8.25;89.10
69393;SHT31;56582;44.624;20.378;2024-03-08T10:23:59;8.28;88.29
69393;SHT31;56582;44.624;20.378;2024-03-08T10:26:25;8.16;88.29
69393;SHT31;56582;44.624;20.378;2024-03-08T10:28:52;8.21;88.22
69393;SHT31;56582;44.624;20.378;2024-03-08T10:31:19;8.23;88.23
69393;SHT31;56582;44.624;20.378;2024-03-08T10:33:48;8.25;87.54
69393;SHT31;56582;44.624;20.378;2024-03-08T10:36:15;8.22;87.63
69393;SHT31;56582;44.624;20.378;2024-03-08T10:38:44;8.28;87.21
69393;SHT31;56582;44.624;20.378;2024-03-08T10:41:12;8.34;88.50
69393;SHT31;56582;44.624;20.378;2024-03-08T10:47:00;8.53;86.63
69393;SHT31;56582;44.624;20.378;2024-03-08T10:52:38;8.91;89.41
69393;SHT31;56582;44.624;20.378;2024-03-08T10:55:05;9.25;92.76
69393;SHT31;56582;44.624;20.378;2024-03-08T10:57:38;9.60;91.74
69393;SHT31;56582;44.624;20.378;2024-03-08T11:00:37;9.87;89.94
69393;SHT31;56582;44.624;20.378;2024-03-08T11:13:48;10.22;84.63
69393;SHT31;56582;44.624;20.378;2024-03-08T11:18:54;10.41;84.39
69393;SHT31;56582;44.624;20.378;2024-03-08T11:21:21;10.63;85.37
69393;SHT31;56582;44.624;20.378;2024-03-08T11:24:01;10.96;84.52
69393;SHT31;56582;44.624;20.378;2024-03-08T11:26:27;11.21;81.85
69393;SHT31;56582;44.624;20.378;2024-03-08T11:35:39;11.32;80.85
69393;SHT31;56582;44.624;20.378;2024-03-08T11:38:07;11.61;82.15
69393;SHT31;56582;44.624;20.378;2024-03-08T11:40:34;11.52;79.00
69393;SHT31;56582;44.624;20.378;2024-03-08T11:43:00;11.25;77.04
69393;SHT31;56582;44.624;20.378;2024-03-08T11:45:28;11.08;79.89
69393;SHT31;56582;44.624;20.378;2024-03-08T11:47:55;10.81;80.35
69393;SHT31;56582;44.624;20.378;2024-03-08T11:50:20;10.58;80.08
69393;SHT31;56582;44.624;20.378;2024-03-08T11:52:50;10.52;79.94
69393;SHT31;56582;44.624;20.378;2024-03-08T11:55:16;10.49;81.40
69393;SHT31;56582;44.624;20.378;2024-03-08T11:57:44;10.46;80.15
69393;SHT31;56582;44.624;20.378;2024-03-08T12:00:18;10.50;78.50
69393;SHT31;56582;44.624;20.378;2024-03-08T12:03:12;10.48;80.28
69393;SHT31;56582;44.624;20.378;2024-03-08T12:05:38;10.52;80.66
69393;SHT31;56582;44.624;20.378;2024-03-08T12:08:04;10.48;77.37
69393;SHT31;56582;44.624;20.378;2024-03-08T12:10:33;10.46;79.77
69393;SHT31;56582;44.624;20.378;2024-03-08T12:13:00;10.52;79.06
69393;SHT31;56582;44.624;20.378;2024-03-08T12:15:28;10.52;81.01
69393;SHT31;56582;44.624;20.378;2024-03-08T12:17:54;10.52;78.82
69393;SHT31;56582;44.624;20.378;2024-03-08T12:20:25;10.77;78.57
69393;SHT31;56582;44.624;20.378;2024-03-08T12:22:52;10.68;79.61
69393;SHT31;56582;44.624;20.378;2024-03-08T12:25:19;10.96;78.25
69393;SHT31;56582;44.624;20.378;2024-03-08T12:27:46;10.87;79.56
69393;SHT31;56582;44.624;20.378;2024-03-08T12:30:19;10.89;78.53
69393;SHT31;56582;44.624;20.378;2024-03-08T12:32:52;11.06;77.01
69393;SHT31;56582;44.624;20.378;2024-03-08T12:35:20;11.04;77.96
69393;SHT31;56582;44.624;20.378;2024-03-08T12:37:49;10.96;78.12
69393;SHT31;56582;44.624;20.378;2024-03-08T12:40:14;10.90;77.61
69393;SHT31;56582;44.624;20.378;2024-03-08T12:42:43;10.87;78.61
69393;SHT31;56582;44.624;20.378;2024-03-08T12:45:09;10.75;77.47
69393;SHT31;56582;44.624;20.378;2024-03-08T12:47:35;10.76;78.11
69393;SHT31;56582;44.624;20.378;2024-03-08T12:50:02;10.77;78.68
69393;SHT31;56582;44.624;20.378;2024-03-08T12:52:28;10.72;77.23
69393;SHT31;56582;44.624;20.378;2024-03-08T12:54:55;10.63;77.78
69393;SHT31;56582;44.624;20.378;2024-03-08T12:57:21;10.68;78.22
69393;SHT31;56582;44.624;20.378;2024-03-08T12:59:47;10.73;77.90
69393;SHT31;56582;44.624;20.378;2024-03-08T13:02:18;10.62;76.40
69393;SHT31;56582;44.624;20.378;2024-03-08T13:04:44;10.73;76.51
69393;SHT31;56582;44.624;20.378;2024-03-08T13:07:09;10.81;75.59
69393;SHT31;56582;44.624;20.378;2024-03-08T13:09:35;10.72;76.93
69393;SHT31;56582;44.624;20.378;2024-03-08T13:12:04;10.75;75.38
69393;SHT31;56582;44.624;20.378;2024-03-08T13:14:30;10.77;75.63
69393;SHT31;56582;44.624;20.378;2024-03-08T13:16:58;10.66;74.82
69393;SHT31;56582;44.624;20.378;2024-03-08T13:19:24;10.76;73.82
69393;SHT31;56582;44.624;20.378;2024-03-08T13:21:54;10.79;74.66
69393;SHT31;56582;44.624;20.378;2024-03-08T13:24:19;10.89;75.30
69393;SHT31;56582;44.624;20.378;2024-03-08T13:26:45;10.80;73.76
69393;SHT31;56582;44.624;20.378;2024-03-08T13:29:11;10.80;74.57
69393;SHT31;56582;44.624;20.378;2024-03-08T13:31:37;10.83;72.13
69393;SHT31;56582;44.624;20.378;2024-03-08T13:34:02;10.77;76.24
69393;SHT31;56582;44.624;20.378;2024-03-08T13:36:30;10.79;73.48
69393;SHT31;56582;44.624;20.378;2024-03-08T13:39:04;10.72;75.42
69393;SHT31;56582;44.624;20.378;2024-03-08T13:41:40;10.77;77.24
69393;SHT31;56582;44.624;20.378;2024-03-08T13:44:07;10.87;74.62
69393;SHT31;56582;44.624;20.378;2024-03-08T13:46:33;10.86;74.71
69393;SHT31;56582;44.624;20.378;2024-03-08T13:49:05;10.68;74.17
69393;SHT31;56582;44.624;20.378;2024-03-08T13:51:33;10.59;75.68
69393;SHT31;56582;44.624;20.378;2024-03-08T13:53:59;10.63;76.13
69393;SHT31;56582;44.624;20.378;2024-03-08T13:56:28;10.69;75.34
69393;SHT31;56582;44.624;20.378;2024-03-08T13:58:57;10.80;77.74
69393;SHT31;56582;44.624;20.378;2024-03-08T14:01:23;10.77;75.15
69393;SHT31;56582;44.624;20.378;2024-03-08T14:03:49;10.68;76.09
69393;SHT31;56582;44.624;20.378;2024-03-08T14:06:15;10.73;74.31
69393;SHT31;56582;44.624;20.378;2024-03-08T14:08:41;10.69;74.78
69393;SHT31;56582;44.624;20.378;2024-03-08T14:11:06;10.86;73.86
69393;SHT31;56582;44.624;20.378;2024-03-08T14:13:44;10.95;70.81
69393;SHT31;56582;44.624;20.378;2024-03-08T14:16:13;10.80;71.13
69393;SHT31;56582;44.624;20.378;2024-03-08T14:18:40;10.62;72.60
69393;SHT31;56582;44.624;20.378;2024-03-08T14:21:06;10.60;75.40
69393;SHT31;56582;44.624;20.378;2024-03-08T14:23:36;10.60;74.71
69393;SHT31;56582;44.624;20.378;2024-03-08T14:26:03;10.59;73.62
69393;SHT31;56582;44.624;20.378;2024-03-08T14:28:29;10.77;74.98
69393;SHT31;56582;44.624;20.378;2024-03-08T14:30:57;10.73;75.65
69393;SHT31;56582;44.624;20.378;2024-03-08T14:33:23;10.81;74.73
69393;SHT31;56582;44.624;20.378;2024-03-08T14:35:50;10.79;74.33
69393;SHT31;56582;44.624;20.378;2024-03-08T14:38:16;10.73;74.86
69393;SHT31;56582;44.624;20.378;2024-03-08T14:40:43;10.59;76.19
69393;SHT31;56582;44.624;20.378;2024-03-08T14:43:12;10.52;74.25
69393;SHT31;56582;44.624;20.378;2024-03-08T14:45:38;10.49;73.61
69393;SHT31;56582;44.624;20.378;2024-03-08T14:48:05;10.37;74.65
69393;SHT31;56582;44.624;20.378;2024-03-08T14:50:30;10.45;75.25
69393;SHT31;56582;44.624;20.378;2024-03-08T14:52:58;10.44;73.80
69393;SHT31;56582;44.624;20.378;2024-03-08T14:55:25;10.42;73.97
69393;SHT31;56582;44.624;20.378;2024-03-08T14:57:51;10.39;74.05
69393;SHT31;56582;44.624;20.378;2024-03-08T15:00:18;10.38;74.00
69393;SHT31;56582;44.624;20.378;2024-03-08T15:03:00;10.41;75.44
69393;SHT31;56582;44.624;20.378;2024-03-08T15:05:27;10.56;73.97
69393;SHT31;56582;44.624;20.378;2024-03-08T15:07:54;10.56;74.68
69393;SHT31;56582;44.624;20.378;2024-03-08T15:10:20;10.59;72.71
69393;SHT31;56582;44.624;20.378;2024-03-08T15:12:49;10.48;74.15
69393;SHT31;56582;44.624;20.378;2024-03-08T15:15:18;10.45;75.86
69393;SHT31;56582;44.624;20.378;2024-03-08T15:17:44;10.39;75.16
69393;SHT31;56582;44.624;20.378;2024-03-08T15:20:13;10.19;75.03
69393;SHT31;56582;44.624;20.378;2024-03-08T15:22:43;10.15;74.28
69393;SHT31;56582;44.624;20.378;2024-03-08T15:25:10;9.95;73.99
69393;SHT31;56582;44.624;20.378;2024-03-08T15:27:39;9.73;74.88
69393;SHT31;56582;44.624;20.378;2024-03-08T15:30:07;9.67;74.97
69393;SHT31;56582;44.624;20.378;2024-03-08T15:32:39;9.71;75.73
69393;SHT31;56582;44.624;20.378;2024-03-08T15:35:09;9.73;75.32
69393;SHT31;56582;44.624;20.378;2024-03-08T15:37:47;9.66;75.85
69393;SHT31;56582;44.624;20.378;2024-03-08T15:40:13;9.67;75.81
69393;SHT31;56582;44.624;20.378;2024-03-08T15:45:17;9.50;76.88
69393;SHT31;56582;44.624;20.378;2024-03-08T15:47:43;9.43;77.04
69393;SHT31;56582;44.624;20.378;2024-03-08T15:53:37;9.12;77.60
69393;SHT31;56582;44.624;20.378;2024-03-08T15:56:06;9.11;78.09
69393;SHT31;56582;44.624;20.378;2024-03-08T15:58:34;9.25;77.88
69393;SHT31;56582;44.624;20.378;2024-03-08T16:01:03;9.15;77.83
69393;SHT31;56582;44.624;20.378;2024-03-08T16:03:31;9.08;78.26
69393;SHT31;56582;44.624;20.378;2024-03-08T16:05:58;8.97;77.60
69393;SHT31;56582;44.624;20.378;2024-03-08T16:08:24;8.71;77.47
69393;SHT31;56582;44.624;20.378;2024-03-08T16:10:51;8.64;78.24
69393;SHT31;56582;44.624;20.378;2024-03-08T16:15:52;8.70;78.61
69393;SHT31;56582;44.624;20.378;2024-03-08T16:18:18;8.71;78.35